Time;durP1;ratioP1;P1;durP2;ratioP2;P2;SDS_P1;SDS_P2;PMS_P1;PMS_P2;Temp;Humidity;BMP_temperature;BMP_pressure;BME280_temperature;BME280_humidity;BME280_pressure;Samples;Min_cycle;Max_cycle;Signal;HPM_P1;HPM_P2
2023/12/14 00:01:27;;;;;;;201.30;43.75;;;;;;;3.69;100.00;110707.81;4962663;28;20042;-72
2023/12/14 00:03:52;;;;;;;126.93;43.92;;;;;;;4.16;100.00;110976.84;4978373;28;20047;-72
2023/12/14 00:06:18;;;;;;;215.63;51.90;;;;;;;4.12;100.00;111032.47;4977185;28;20089;-74
2023/12/14 00:08:44;;;;;;;133.10;44.83;;;;;;;4.20;100.00;111229.06;4961020;28;20043;-72
2023/12/14 00:11:11;;;;;;;214.80;48.85;;;;;;;4.05;100.00;111027.00;4982186;28;20457;-72
2023/12/14 00:13:37;;;;;;;98.22;42.65;;;;;;;4.29;99.93;111171.75;4980556;28;20026;-71
2023/12/14 00:16:03;;;;;;;91.38;41.80;;;;;;;4.21;99.84;111209.81;4957907;28;20494;-71
2023/12/14 00:18:28;;;;;;;100.82;43.30;;;;;;;4.25;99.74;111310.66;4960624;28;20035;-73
2023/12/14 00:20:54;;;;;;;97.78;45.00;;;;;;;4.24;99.75;111250.72;4979123;28;20469;-72
2023/12/14 00:23:20;;;;;;;100.63;43.92;;;;;;;3.83;99.69;111066.72;4965433;28;20429;-73
2023/12/14 00:25:45;;;;;;;86.53;41.90;;;;;;;4.10;99.69;111113.63;4982699;28;20093;-71
2023/12/14 00:28:11;;;;;;;116.20;46.75;;;;;;;4.10;99.78;111021.16;4975462;28;20051;-72
2023/12/14 00:30:36;;;;;;;101.68;43.65;;;;;;;4.39;99.63;111223.22;4974934;28;20038;-72
2023/12/14 00:33:02;;;;;;;192.80;51.83;;;;;;;3.84;99.58;111217.38;4960978;28;20039;-72
2023/12/14 00:35:27;;;;;;;148.38;48.55;;;;;;;3.79;99.63;111056.72;4982245;28;20050;-72
2023/12/14 00:37:53;;;;;;;104.80;51.58;;;;;;;4.11;99.66;111110.41;4963170;28;20508;-72
2023/12/14 00:40:18;;;;;;;180.50;50.08;;;;;;;4.23;99.64;111238.78;4961216;28;20054;-71
2023/12/14 00:42:44;;;;;;;218.70;50.67;;;;;;;4.16;99.61;111220.69;4979204;28;20496;-71
2023/12/14 00:45:09;;;;;;;128.57;49.83;;;;;;;3.51;99.73;110980.28;4962070;28;20038;-71
2023/12/14 00:47:35;;;;;;;123.45;48.75;;;;;;;4.25;99.86;111192.03;4966979;28;20050;-71
2023/12/14 00:50:00;;;;;;;127.10;51.72;;;;;;;4.15;99.80;111340.88;4965753;28;20038;-71
2023/12/14 00:52:27;;;;;;;136.07;48.47;;;;;;;4.21;99.72;111434.44;4955509;28;20031;-71
2023/12/14 00:54:53;;;;;;;169.60;46.78;;;;;;;4.17;99.67;111550.59;4979786;28;20045;-72
2023/12/14 00:57:18;;;;;;;98.63;44.35;;;;;;;3.83;99.71;111512.16;4961676;28;20030;-72
2023/12/14 00:59:44;;;;;;;124.50;48.45;;;;;;;3.49;99.65;111512.50;4958875;28;20511;-72
2023/12/14 01:02:09;;;;;;;184.82;48.15;;;;;;;3.80;99.51;111743.66;4963020;28;20030;-71
2023/12/14 01:04:35;;;;;;;122.40;44.20;;;;;;;4.05;99.48;111824.31;4964994;28;20034;-71
2023/12/14 01:07:00;;;;;;;123.20;44.75;;;;;;;4.00;99.41;111834.16;4975504;28;20050;-72
2023/12/14 01:09:26;;;;;;;104.60;43.45;;;;;;;3.84;99.45;111778.91;4961040;28;20033;-73
2023/12/14 01:11:51;;;;;;;107.15;44.88;;;;;;;3.50;99.33;111709.44;4972076;28;20043;-72
2023/12/14 01:14:17;;;;;;;123.13;45.03;;;;;;;3.97;99.38;111604.94;4960142;28;20030;-72
2023/12/14 01:16:44;;;;;;;177.25;47.58;;;;;;;3.20;99.51;111353.34;4980289;28;20042;-73
2023/12/14 01:19:10;;;;;;;131.80;47.28;;;;;;;3.40;99.44;111347.91;4962670;28;20081;-72
2023/12/14 01:21:35;;;;;;;120.72;48.85;;;;;;;3.23;99.33;111431.06;4958389;28;20031;-72
2023/12/14 01:24:01;;;;;;;154.63;46.45;;;;;;;3.83;99.33;111629.13;4957116;28;20042;-72
2023/12/14 01:26:27;;;;;;;110.93;43.38;;;;;;;3.33;99.18;111579.25;4962441;28;20027;-72
2023/12/14 01:28:52;;;;;;;116.72;45.45;;;;;;;3.87;99.13;111858.63;4965530;28;20154;-72
2023/12/14 01:31:18;;;;;;;101.38;43.72;;;;;;;3.69;99.08;111859.19;4964583;28;20042;-72
2023/12/14 01:33:45;;;;;;;114.95;42.90;;;;;;;4.10;99.09;111997.72;4968296;28;20026;-72
2023/12/14 01:36:11;;;;;;;158.20;46.42;;;;;;;3.59;99.05;111757.19;4988940;28;20476;-72
2023/12/14 01:38:37;;;;;;;93.72;45.20;;;;;;;4.05;99.06;111843.53;4983740;28;20043;-73
2023/12/14 01:41:03;;;;;;;99.30;45.03;;;;;;;4.05;99.04;111723.38;4985688;28;20035;-73
2023/12/14 01:43:29;;;;;;;101.07;43.13;;;;;;;4.14;99.01;111782.22;4980385;28;20522;-72
2023/12/14 01:45:54;;;;;;;115.55;43.15;;;;;;;3.78;98.93;111765.13;4964749;28;20034;-72
2023/12/14 01:48:20;;;;;;;99.85;39.70;;;;;;;3.87;98.92;111771.91;4960537;28;20034;-72
2023/12/14 01:50:45;;;;;;;133.20;44.35;;;;;;;4.03;98.91;111818.03;4962950;28;20472;-71
2023/12/14 01:53:11;;;;;;;100.20;41.78;;;;;;;3.97;98.88;111819.38;4964562;28;20034;-72
2023/12/14 01:55:37;;;;;;;120.57;41.20;;;;;;;4.03;98.86;111732.22;4980708;28;20034;-71
2023/12/14 01:58:02;;;;;;;116.07;44.67;;;;;;;4.14;98.93;111555.09;4964247;28;20092;-72
2023/12/14 02:00:46;;;;;;;89.20;41.25;;;;;;;4.09;98.91;111510.38;4963936;28;20491;-72
2023/12/14 02:03:12;;;;;;;141.73;45.45;;;;;;;4.24;98.95;111515.72;4975977;28;20038;-73
2023/12/14 02:05:37;;;;;;;156.13;45.85;;;;;;;4.29;98.93;111598.31;4965628;28;20042;-74
2023/12/14 02:08:03;;;;;;;188.43;47.25;;;;;;;4.34;98.92;111803.00;4962030;28;20481;-72
2023/12/14 02:10:28;;;;;;;97.38;43.03;;;;;;;4.36;98.90;111920.34;4970691;28;20555;-71
2023/12/14 02:12:54;;;;;;;172.10;43.95;;;;;;;4.13;98.92;111628.91;4969815;28;20413;-74
2023/12/14 02:15:20;;;;;;;107.32;41.83;;;;;;;3.71;98.89;111478.03;4967689;28;20030;-70
2023/12/14 02:17:45;;;;;;;174.85;41.30;;;;;;;4.29;98.92;111830.53;4964662;28;20069;-72
2023/12/14 02:20:11;;;;;;;156.18;42.75;;;;;;;4.20;98.90;111934.78;4979221;28;20022;-72
2023/12/14 02:22:52;;;;;;;123.15;41.30;;;;;;;4.25;98.90;112017.41;4982788;28;20038;-71
2023/12/14 02:25:18;;;;;;;103.80;39.92;;;;;;;3.87;98.82;112224.44;4967066;28;20026;-71
2023/12/14 02:27:44;;;;;;;95.68;39.65;;;;;;;4.39;98.95;112213.84;4965363;28;20051;-71
2023/12/14 02:30:11;;;;;;;142.68;40.17;;;;;;;4.20;98.94;112126.63;4984528;28;20077;-70
2023/12/14 02:32:37;;;;;;;141.23;42.47;;;;;;;4.01;98.88;112212.97;4979948;28;20050;-71
2023/12/14 02:35:03;;;;;;;136.23;41.92;;;;;;;4.10;98.90;112239.06;4982702;28;20045;-71
2023/12/14 02:37:29;;;;;;;166.82;42.10;;;;;;;3.86;98.87;112254.41;4960092;28;20516;-71
2023/12/14 02:39:55;;;;;;;126.72;43.13;;;;;;;4.18;98.87;112446.91;4969646;28;20034;-75
2023/12/14 02:42:20;;;;;;;165.45;43.80;;;;;;;4.00;98.84;112444.81;4972180;28;20046;-71
2023/12/14 02:44:46;;;;;;;152.98;44.53;;;;;;;4.21;98.89;112383.47;4982387;28;20026;-70
2023/12/14 02:47:12;;;;;;;119.18;44.53;;;;;;;4.47;98.88;112560.38;4983045;28;20042;-71
2023/12/14 02:49:37;;;;;;;131.85;44.22;;;;;;;4.35;98.87;112495.75;4981686;28;20105;-71
2023/12/14 02:52:11;;;;;;;189.43;44.20;;;;;;;4.44;98.88;112598.59;4962456;28;20046;-71
2023/12/14 02:54:38;;;;;;;172.73;44.30;;;;;;;4.21;98.83;112492.03;4977056;28;20030;-70
2023/12/14 02:57:04;;;;;;;153.75;46.67;;;;;;;4.21;98.83;112567.78;4965459;28;20038;-70
2023/12/14 02:59:30;;;;;;;212.05;48.40;;;;;;;4.39;98.84;112538.66;4964433;28;20030;-71
2023/12/14 03:01:55;;;;;;;139.52;45.15;;;;;;;4.46;98.86;112710.97;4965741;28;20482;-71
2023/12/14 03:04:21;;;;;;;456.83;125.30;;;;;;;4.28;98.85;112727.44;4964341;28;20095;-71
2023/12/14 03:06:47;;;;;;;232.93;62.05;;;;;;;4.35;98.84;112908.31;4978661;28;20039;-73
2023/12/14 03:09:12;;;;;;;169.02;50.30;;;;;;;3.91;98.81;112831.56;4968634;28;20041;-71
2023/12/14 03:11:38;;;;;;;177.73;60.15;;;;;;;3.93;98.78;112974.16;4983251;28;20041;-71
2023/12/14 03:14:03;;;;;;;267.05;59.10;;;;;;;4.49;98.79;113332.06;4960480;28;20039;-71
2023/12/14 03:16:29;;;;;;;135.93;52.97;;;;;;;4.52;98.78;113654.53;4979174;28;20035;-71
2023/12/14 03:18:56;;;;;;;127.38;67.43;;;;;;;4.24;98.74;113636.47;4962933;28;20034;-72
2023/12/14 03:21:22;;;;;;;146.02;55.88;;;;;;;4.10;98.73;113532.47;4982772;28;20125;-70
2023/12/14 03:23:48;;;;;;;125.40;44.67;;;;;;;4.02;98.72;113316.84;4965425;28;20118;-70
2023/12/14 03:26:13;;;;;;;95.35;42.03;;;;;;;4.01;98.72;113469.88;4979180;28;20030;-72
2023/12/14 03:28:39;;;;;;;187.48;52.00;;;;;;;4.24;98.74;113747.59;4962667;28;20055;-71
2023/12/14 03:31:05;;;;;;;126.47;51.15;;;;;;;4.14;98.72;113710.84;4981948;28;20110;-71
2023/12/14 03:33:30;;;;;;;148.60;48.33;;;;;;;3.99;98.67;114039.13;4974746;28;20563;-70
2023/12/14 03:35:56;;;;;;;164.88;46.80;;;;;;;4.30;98.71;114284.47;4968151;28;20030;-75
2023/12/14 03:38:21;;;;;;;146.68;46.30;;;;;;;4.34;98.70;114302.25;4961194;28;20122;-71
2023/12/14 03:40:47;;;;;;;121.13;44.72;;;;;;;4.20;98.68;114204.66;4984528;28;20446;-71
2023/12/14 03:43:13;;;;;;;90.38;43.45;;;;;;;4.49;98.69;114384.13;4961472;28;20038;-71
2023/12/14 03:45:38;;;;;;;92.15;46.13;;;;;;;3.76;98.59;114329.81;4985753;28;20109;-70
2023/12/14 03:48:04;;;;;;;102.75;45.55;;;;;;;3.96;98.63;114300.97;4960662;28;20037;-71
2023/12/14 03:50:29;;;;;;;73.55;38.28;;;;;;;4.51;98.68;114307.09;4961804;28;20030;-71
2023/12/14 03:52:55;;;;;;;73.88;38.20;;;;;;;4.48;98.66;114382.19;4982251;28;20042;-70
2023/12/14 03:55:20;;;;;;;85.50;39.03;;;;;;;4.13;98.61;114174.53;4984087;28;20124;-70
2023/12/14 03:57:46;;;;;;;60.75;32.85;;;;;;;4.85;98.69;114401.72;4985693;28;20110;-77
2023/12/14 04:00:13;;;;;;;88.55;44.78;;;;;;;4.45;98.63;114352.72;4977457;28;20035;-73
2023/12/14 04:02:40;;;;;;;96.82;44.83;;;;;;;4.42;98.64;114238.34;4964816;28;20390;-72
2023/12/14 04:05:09;;;;;;;80.57;41.22;;;;;;;4.57;98.67;114024.47;4961268;28;20103;-73
2023/12/14 04:07:40;;;;;;;87.28;43.83;;;;;;;4.42;98.65;113892.22;4981578;28;20026;-73
2023/12/14 04:10:15;;;;;;;96.43;46.08;;;;;;;4.22;98.63;113736.19;4960380;28;20038;-75
2023/12/14 04:12:41;;;;;;;80.63;42.88;;;;;;;4.71;98.67;113747.97;4968096;28;20184;-71
2023/12/14 04:15:08;;;;;;;80.85;42.20;;;;;;;4.58;98.66;113590.16;4981880;28;20121;-74
2023/12/14 04:17:33;;;;;;;76.63;43.30;;;;;;;4.62;98.67;113504.31;4982743;28;20520;-73
2023/12/14 04:20:00;;;;;;;84.35;44.78;;;;;;;4.59;98.69;113314.16;4978443;28;20061;-74
2023/12/14 04:22:26;;;;;;;84.30;45.75;;;;;;;4.53;98.66;113214.31;4982444;28;20601;-73
2023/12/14 04:24:52;;;;;;;93.00;48.13;;;;;;;4.50;98.68;113082.28;4965198;28;20038;-74
2023/12/14 04:27:17;;;;;;;94.85;45.88;;;;;;;4.26;98.63;112998.88;4983630;28;20109;-73
2023/12/14 04:29:43;;;;;;;91.10;46.88;;;;;;;4.12;98.63;112916.81;4985232;28;20039;-74
2023/12/14 04:32:09;;;;;;;92.95;46.67;;;;;;;4.40;98.67;112872.31;4963571;28;20053;-72
2023/12/14 04:34:35;;;;;;;112.35;50.25;;;;;;;4.47;98.68;112907.38;4979314;28;20113;-70
2023/12/14 04:37:01;;;;;;;100.95;53.22;;;;;;;4.42;98.66;112992.94;4984351;28;20129;-73
2023/12/14 04:39:27;;;;;;;108.28;54.22;;;;;;;4.55;98.68;113022.63;4965511;28;20033;-72
2023/12/14 04:41:53;;;;;;;96.40;48.13;;;;;;;4.33;98.67;112914.63;4965645;28;20490;-73
2023/12/14 04:44:19;;;;;;;83.30;43.25;;;;;;;4.63;98.70;113076.66;4963202;28;20052;-72
2023/12/14 04:46:45;;;;;;;102.38;44.15;;;;;;;4.57;98.70;113052.66;4984077;28;20488;-71
2023/12/14 04:49:10;;;;;;;85.03;41.95;;;;;;;4.21;98.65;112939.84;4967099;28;20038;-72
2023/12/14 04:51:36;;;;;;;89.10;43.17;;;;;;;3.95;98.60;112907.28;4965023;28;20045;-73
2023/12/14 04:54:02;;;;;;;111.72;48.47;;;;;;;4.03;98.62;112922.44;4965305;28;20026;-77
2023/12/14 04:56:28;;;;;;;112.28;52.15;;;;;;;4.72;98.71;113193.84;4980601;28;20096;-76
2023/12/14 04:58:53;;;;;;;120.82;54.33;;;;;;;4.39;98.66;113163.41;4983361;28;20130;-74
2023/12/14 05:01:19;;;;;;;104.13;50.10;;;;;;;4.21;98.63;113171.19;4983530;28;20121;-75
2023/12/14 05:03:44;;;;;;;110.72;52.95;;;;;;;4.39;98.68;113105.31;4982338;28;20053;-74
2023/12/14 05:06:10;;;;;;;114.50;53.65;;;;;;;4.16;98.63;113154.13;4981616;28;20089;-74
2023/12/14 05:08:35;;;;;;;130.55;59.78;;;;;;;4.28;98.64;113228.34;4966444;28;20512;-74
2023/12/14 05:11:01;;;;;;;98.53;50.33;;;;;;;4.65;98.69;113264.91;4967486;28;20046;-73
2023/12/14 05:13:26;;;;;;;94.88;48.75;;;;;;;4.11;98.62;113025.97;4982689;28;20031;-73
2023/12/14 05:15:52;;;;;;;117.72;47.25;;;;;;;4.09;98.63;112874.19;4983349;28;20081;-73
2023/12/14 05:18:18;;;;;;;95.97;46.67;;;;;;;4.76;98.69;113030.56;4965046;28;20038;-72
2023/12/14 05:20:45;;;;;;;106.28;49.08;;;;;;;4.59;98.69;112882.13;4985347;28;20457;-71
2023/12/14 05:23:11;;;;;;;88.18;42.72;;;;;;;4.19;98.66;112668.44;4982170;28;20122;-74
2023/12/14 05:25:37;;;;;;;89.18;42.97;;;;;;;4.52;98.70;112636.44;4981047;28;20061;-72
2023/12/14 05:28:02;;;;;;;103.25;46.97;;;;;;;4.57;98.71;112633.28;4978099;28;20078;-73
2023/12/14 05:30:29;;;;;;;95.28;45.83;;;;;;;4.30;98.68;112511.53;4980551;28;20034;-75
2023/12/14 05:32:54;;;;;;;121.10;54.90;;;;;;;4.40;98.68;112550.63;4964987;28;20100;-74
2023/12/14 05:35:20;;;;;;;108.72;51.47;;;;;;;4.02;98.65;112425.88;4964772;28;20023;-74
2023/12/14 05:37:45;;;;;;;103.05;50.70;;;;;;;4.51;98.69;112589.09;4964947;28;20034;-72
2023/12/14 05:40:11;;;;;;;104.30;53.10;;;;;;;4.13;98.65;112543.50;4964716;28;20034;-73
2023/12/14 05:42:37;;;;;;;106.43;52.78;;;;;;;4.52;98.71;112558.16;4963278;28;20096;-74
2023/12/14 05:45:04;;;;;;;123.22;55.83;;;;;;;4.32;98.68;112575.91;4960659;28;20079;-74
2023/12/14 05:47:31;;;;;;;95.53;45.05;;;;;;;5.57;98.76;113222.81;4982735;28;20034;-77
2023/12/14 05:49:57;;;;;;;145.55;61.70;;;;;;;4.95;98.74;113358.91;4958830;28;20034;-72
2023/12/14 05:52:22;;;;;;;114.68;55.78;;;;;;;4.64;98.70;113168.53;4976466;28;20034;-73
2023/12/14 05:54:48;;;;;;;109.50;56.65;;;;;;;4.59;98.70;113026.13;4976450;28;20095;-71
2023/12/14 05:57:13;;;;;;;175.73;71.68;;;;;;;4.43;98.70;112898.84;4982374;28;20477;-71
2023/12/14 05:59:39;;;;;;;133.05;69.38;;;;;;;4.34;98.68;112873.56;4958889;28;20061;-71
2023/12/14 06:02:06;;;;;;;130.63;59.70;;;;;;;4.57;98.72;112878.31;4975548;28;20029;-71
2023/12/14 06:04:32;;;;;;;141.95;59.88;;;;;;;4.54;98.71;112957.56;4980651;28;20114;-74
2023/12/14 06:06:57;;;;;;;160.27;60.15;;;;;;;4.60;98.72;112878.94;4975154;28;20086;-72
2023/12/14 06:09:29;;;;;;;182.10;65.75;;;;;;;4.43;98.69;112866.97;4963581;28;20046;-72
2023/12/14 06:11:54;;;;;;;186.02;68.05;;;;;;;4.54;98.71;112882.72;4962215;28;20034;-74
2023/12/14 06:14:20;;;;;;;143.48;60.50;;;;;;;4.66;98.73;112933.25;4963807;28;20031;-72
2023/12/14 06:16:46;;;;;;;136.77;59.72;;;;;;;4.76;98.72;113101.31;4963939;28;20503;-72
2023/12/14 06:19:11;;;;;;;132.05;60.20;;;;;;;4.74;98.71;113061.19;4964444;28;20023;-71
2023/12/14 06:21:37;;;;;;;144.68;62.47;;;;;;;4.76;98.72;112990.13;4985754;28;20038;-71
2023/12/14 06:24:03;;;;;;;111.30;54.22;;;;;;;4.83;98.73;112995.78;4965256;28;20035;-73
2023/12/14 06:26:28;;;;;;;119.90;54.75;;;;;;;4.83;98.73;112936.75;4982416;28;20034;-74
2023/12/14 06:28:54;;;;;;;133.02;57.90;;;;;;;4.76;98.72;112947.16;4983402;28;20054;-72
2023/12/14 06:31:22;;;;;;;126.72;56.95;;;;;;;4.35;98.67;112829.06;4981372;28;20398;-72
2023/12/14 06:33:48;;;;;;;117.57;54.90;;;;;;;4.76;98.71;112898.19;4967497;28;20572;-72
2023/12/14 06:36:17;;;;;;;174.63;68.53;;;;;;;4.61;98.68;112965.78;4963371;28;20117;-71
2023/12/14 06:38:43;;;;;;;126.32;53.95;;;;;;;4.81;98.71;112974.34;4964266;28;20034;-74
2023/12/14 06:41:09;;;;;;;136.55;58.63;;;;;;;4.76;98.72;112848.59;4980219;28;20046;-74
2023/12/14 06:43:35;;;;;;;134.02;60.42;;;;;;;4.93;98.73;112953.16;4965053;28;20042;-73
2023/12/14 06:46:00;;;;;;;147.93;67.03;;;;;;;4.84;98.71;113024.56;4964818;28;20034;-69
2023/12/14 06:48:26;;;;;;;133.70;63.55;;;;;;;4.75;98.72;112861.88;4966513;28;20030;-71
2023/12/14 06:50:54;;;;;;;152.70;72.90;;;;;;;4.86;98.74;112836.25;4963840;28;20041;-70
2023/12/14 06:53:20;;;;;;;144.18;70.75;;;;;;;4.95;98.74;112879.50;4967255;28;20038;-73
2023/12/14 06:55:45;;;;;;;146.90;68.18;;;;;;;4.67;98.69;112846.75;4964470;28;20394;-69
2023/12/14 06:58:11;;;;;;;131.93;63.85;;;;;;;4.41;98.68;112640.91;4976794;28;20035;-69
2023/12/14 07:00:37;;;;;;;134.68;57.35;;;;;;;4.41;98.68;112552.53;4965064;28;20026;-69
2023/12/14 07:03:03;;;;;;;139.27;52.33;;;;;;;4.50;98.71;112481.13;4968690;28;20046;-71
2023/12/14 07:05:29;;;;;;;184.18;65.32;;;;;;;4.66;98.72;112584.59;4962396;28;20054;-69
2023/12/14 07:07:56;;;;;;;176.50;59.95;;;;;;;4.39;98.68;112669.97;4964495;28;20095;-70
2023/12/14 07:10:22;;;;;;;135.90;52.65;;;;;;;4.24;98.67;112650.13;4958571;28;20030;-70
2023/12/14 07:12:47;;;;;;;111.95;46.38;;;;;;;4.36;98.66;112681.94;4978949;28;20050;-71
2023/12/14 07:15:13;;;;;;;104.50;46.15;;;;;;;4.69;98.71;112829.34;4985057;28;20133;-69
2023/12/14 07:17:38;;;;;;;108.03;42.25;;;;;;;4.84;98.72;112937.03;4978538;28;20026;-69
2023/12/14 07:20:06;;;;;;;79.80;40.50;;;;;;;5.07;98.74;113104.53;4980051;28;20090;-73
2023/12/14 07:22:31;;;;;;;87.63;45.70;;;;;;;4.92;98.73;113025.50;4981244;28;20042;-70
2023/12/14 07:24:57;;;;;;;95.97;49.58;;;;;;;4.98;98.73;112944.94;4977946;28;20030;-71
2023/12/14 07:27:22;;;;;;;82.45;44.67;;;;;;;4.94;98.74;112844.78;4977089;28;20381;-69
2023/12/14 07:29:48;;;;;;;89.38;47.40;;;;;;;4.87;98.73;112767.41;4982932;28;20042;-70
2023/12/14 07:32:13;;;;;;;84.00;49.15;;;;;;;5.14;98.76;112816.91;4966156;28;20243;-69
2023/12/14 07:34:39;;;;;;;92.10;47.03;;;;;;;4.67;98.71;112593.13;4977566;28;20037;-70
2023/12/14 07:37:05;;;;;;;88.30;46.45;;;;;;;5.28;98.77;112819.69;4987181;28;20112;-69
2023/12/14 07:39:31;;;;;;;87.47;46.40;;;;;;;4.48;98.67;112534.50;4964131;28;20480;-69
2023/12/14 07:41:56;;;;;;;102.47;55.03;;;;;;;5.14;98.76;112584.28;4978744;28;20038;-68
2023/12/14 07:44:22;;;;;;;129.43;61.95;;;;;;;5.09;98.76;112556.19;4963291;28;20513;-69
2023/12/14 07:46:48;;;;;;;147.95;74.40;;;;;;;5.04;98.75;112535.06;4983253;28;20043;-69
2023/12/14 07:49:13;;;;;;;123.15;69.47;;;;;;;5.16;98.76;112585.53;4961392;28;20038;-69
2023/12/14 07:51:39;;;;;;;98.43;57.17;;;;;;;5.31;98.76;112543.69;4984751;28;20121;-69
2023/12/14 07:54:04;;;;;;;74.10;47.70;;;;;;;4.90;98.71;112531.38;4982155;28;20034;-70
2023/12/14 07:56:30;;;;;;;83.60;50.15;;;;;;;5.45;98.77;112608.97;4980666;28;20122;-69
2023/12/14 07:58:55;;;;;;;77.03;49.47;;;;;;;5.67;98.80;112825.16;4965450;28;20034;-70
2023/12/14 08:01:21;;;;;;;79.95;51.88;;;;;;;5.63;98.80;112782.16;4980951;28;20117;-71
2023/12/14 08:03:46;;;;;;;89.55;54.20;;;;;;;5.21;98.75;112493.81;4983802;28;20049;-69
2023/12/14 08:06:12;;;;;;;92.75;55.92;;;;;;;5.51;98.80;112448.25;4966078;28;20093;-69
2023/12/14 08:08:43;;;;;;;97.45;64.03;;;;;;;5.28;98.77;112274.38;4984189;28;20120;-70
2023/12/14 08:11:09;;;;;;;98.57;63.05;;;;;;;5.94;98.84;112368.97;4961025;28;20035;-70
2023/12/14 08:13:34;;;;;;;110.13;65.30;;;;;;;5.43;98.78;112228.28;4977576;28;20047;-70
2023/12/14 08:16:00;;;;;;;112.43;70.10;;;;;;;6.05;98.86;112226.06;4981820;28;20113;-71
2023/12/14 08:18:25;;;;;;;118.20;77.05;;;;;;;5.70;98.83;112022.59;4980344;28;20034;-70
2023/12/14 08:20:55;;;;;;;107.80;74.90;;;;;;;5.68;98.82;111877.16;4980503;28;20420;-69
2023/12/14 08:23:20;;;;;;;88.50;60.92;;;;;;;5.78;98.86;111792.16;4962606;28;20035;-70
2023/12/14 08:25:46;;;;;;;88.57;59.78;;;;;;;6.22;98.91;111907.56;4960392;28;20038;-69
2023/12/14 08:28:11;;;;;;;70.22;49.08;;;;;;;6.09;98.91;111731.28;4976353;28;20074;-69
2023/12/14 08:30:38;;;;;;;70.88;47.42;;;;;;;6.55;98.95;111878.25;4961684;28;20041;-69
2023/12/14 08:33:04;;;;;;;67.93;48.10;;;;;;;6.18;98.94;111630.75;4978760;28;20493;-69
2023/12/14 08:35:29;;;;;;;63.40;41.92;;;;;;;5.91;98.91;111458.09;4976969;28;20074;-70
2023/12/14 08:37:55;;;;;;;52.42;37.55;;;;;;;6.03;98.91;111515.94;4977269;28;20104;-70
2023/12/14 08:40:20;;;;;;;47.85;35.42;;;;;;;5.91;98.90;111383.75;4982714;28;20078;-70
2023/12/14 08:42:47;;;;;;;53.67;39.25;;;;;;;6.25;98.95;111428.56;4977170;28;20034;-70
2023/12/14 08:45:12;;;;;;;57.30;38.63;;;;;;;6.50;98.98;111433.13;4975967;28;20053;-69
2023/12/14 08:47:38;;;;;;;62.85;43.38;;;;;;;6.61;99.01;111457.81;4961642;28;20031;-70
2023/12/14 08:50:05;;;;;;;57.95;39.13;;;;;;;6.81;99.04;111485.91;4963019;28;20070;-69
2023/12/14 08:52:30;;;;;;;63.53;42.63;;;;;;;6.60;99.00;111426.47;4962068;28;20041;-70
2023/12/14 08:54:56;;;;;;;67.00;42.28;;;;;;;6.16;98.96;111253.19;4982999;28;20022;-70
2023/12/14 08:57:21;;;;;;;67.40;42.85;;;;;;;6.86;99.05;111267.16;4978371;28;20034;-70
2023/12/14 08:59:47;;;;;;;63.08;43.65;;;;;;;6.93;99.06;111285.25;4980796;28;20463;-69
2023/12/14 09:02:12;;;;;;;61.53;44.08;;;;;;;6.92;99.08;111176.94;4980712;28;20042;-71
2023/12/14 09:04:38;;;;;;;64.07;45.03;;;;;;;6.03;98.99;110857.84;4977367;28;20041;-70
2023/12/14 09:07:04;;;;;;;67.80;46.70;;;;;;;6.95;99.08;111001.63;4960591;28;20057;-70
2023/12/14 09:09:30;;;;;;;69.82;48.90;;;;;;;7.09;99.11;111039.38;4981127;28;20069;-70
2023/12/14 09:11:55;;;;;;;71.00;49.17;;;;;;;7.18;99.12;111008.84;4978510;28;20034;-69
2023/12/14 09:14:21;;;;;;;63.70;46.15;;;;;;;6.73;99.09;110776.69;4978156;28;20038;-71
2023/12/14 09:16:46;;;;;;;67.55;48.47;;;;;;;7.25;99.15;110823.13;4976702;28;20488;-70
2023/12/14 09:19:12;;;;;;;66.82;50.83;;;;;;;7.26;99.14;110831.00;4962488;28;20501;-70
2023/12/14 09:21:37;;;;;;;71.00;53.10;;;;;;;7.18;99.19;110600.63;4980686;28;20030;-70
2023/12/14 09:24:03;;;;;;;62.10;47.22;;;;;;;7.37;99.20;110574.00;4974982;28;20035;-71
2023/12/14 09:26:29;;;;;;;70.82;50.30;;;;;;;6.96;99.18;110403.69;4961821;28;20063;-70
2023/12/14 09:28:54;;;;;;;68.18;49.10;;;;;;;7.63;99.24;110529.16;4978948;28;20098;-70
2023/12/14 09:31:20;;;;;;;55.40;40.08;;;;;;;7.61;99.26;110425.56;4977037;28;20042;-69
2023/12/14 09:33:45;;;;;;;51.03;36.60;;;;;;;7.73;99.27;110420.78;4960638;28;20058;-70
2023/12/14 09:36:10;;;;;;;51.92;35.72;;;;;;;7.23;99.23;110228.63;4978664;28;20069;-72
2023/12/14 09:38:36;;;;;;;47.97;34.90;;;;;;;7.52;99.25;110236.47;4976611;28;20033;-70
2023/12/14 09:41:02;;;;;;;51.75;36.97;;;;;;;7.90;99.33;110265.97;4964801;28;20034;-70
2023/12/14 09:43:28;;;;;;;49.22;33.63;;;;;;;8.30;99.35;110355.03;4955320;28;20027;-70
2023/12/14 09:45:55;;;;;;;47.28;33.45;;;;;;;7.84;99.31;110145.78;4961479;28;20153;-70
2023/12/14 09:48:22;;;;;;;52.95;36.28;;;;;;;7.64;99.33;109946.56;4959815;28;20557;-70
2023/12/14 09:50:50;;;;;;;62.40;43.80;;;;;;;7.93;99.43;109847.59;4968369;28;20571;-70
2023/12/14 09:53:15;;;;;;;60.15;42.75;;;;;;;8.20;99.43;109892.13;4977890;28;21625;-70
2023/12/14 09:55:41;;;;;;;57.45;43.70;;;;;;;8.30;99.45;109808.06;4965499;28;20061;-70
2023/12/14 09:58:09;;;;;;;61.90;42.65;;;;;;;7.63;99.39;109587.94;4964928;28;20449;-70
2023/12/14 10:00:39;;;;;;;59.28;43.05;;;;;;;8.22;99.49;109573.34;4981799;28;20022;-70
2023/12/14 10:03:28;;;;;;;65.80;43.50;;;;;;;8.22;99.52;109497.16;4980008;28;20090;-70
2023/12/14 10:05:55;;;;;;;64.75;45.53;;;;;;;8.58;99.55;109526.66;4983951;28;20110;-71
2023/12/14 10:08:21;;;;;;;62.17;43.95;;;;;;;8.38;99.58;109287.78;4978888;28;20026;-70
2023/12/14 10:10:49;;;;;;;66.47;46.70;;;;;;;8.34;99.54;109227.13;4962411;28;20036;-69
2023/12/14 10:13:15;;;;;;;90.35;63.78;;;;;;;8.36;99.58;109072.47;4978066;28;20035;-70
2023/12/14 10:15:42;;;;;;;100.35;72.95;;;;;;;8.43;99.61;108941.38;4966296;28;20026;-71
2023/12/14 10:18:08;;;;;;;100.45;68.88;;;;;;;8.57;99.72;108750.97;4977301;28;20685;-70
2023/12/14 10:20:33;;;;;;;97.88;74.85;;;;;;;9.06;99.73;108805.19;4967201;28;20038;-69
2023/12/14 10:22:59;;;;;;;105.15;74.65;;;;;;;9.13;99.80;108642.50;4978570;28;20109;-70
2023/12/14 10:25:25;;;;;;;110.18;80.20;;;;;;;9.09;99.84;108468.38;4985343;28;20104;-70
2023/12/14 10:27:54;;;;;;;81.40;56.83;;;;;;;9.40;99.86;108379.63;4982254;28;20048;-71
2023/12/14 10:30:19;;;;;;;102.28;73.80;;;;;;;8.93;99.94;108077.66;4616385;28;9999801;-70
2023/12/14 10:32:49;;;;;;;108.40;74.32;;;;;;;8.91;99.96;107919.97;4977967;28;20030;-70
2023/12/14 10:35:16;;;;;;;87.90;60.47;;;;;;;9.41;100.00;107837.22;4977876;28;20041;-73
2023/12/14 10:37:42;;;;;;;87.88;58.78;;;;;;;9.27;100.00;107630.63;4964544;28;20094;-70
2023/12/14 10:40:14;;;;;;;80.57;55.30;;;;;;;9.53;100.00;107546.00;4977545;28;20035;-70
2023/12/14 10:42:43;;;;;;;62.50;43.70;;;;;;;9.77;100.00;107414.31;4958273;28;20154;-69
2023/12/14 10:45:13;;;;;;;79.55;60.17;;;;;;;9.79;100.00;107183.84;4976291;28;20035;-69
2023/12/14 10:47:47;;;;;;;74.05;53.80;;;;;;;9.81;100.00;107022.97;4978620;28;20053;-69
2023/12/14 10:50:13;;;;;;;76.57;54.80;;;;;;;10.02;100.00;106856.06;4964590;28;20034;-70
2023/12/14 10:52:40;;;;;;;73.65;54.67;;;;;;;9.79;100.00;106598.81;4962069;28;20041;-71
2023/12/14 10:55:16;;;;;;;71.07;49.80;;;;;;;10.74;100.00;106678.81;4982557;28;20038;-70
2023/12/14 10:57:41;;;;;;;72.95;51.60;;;;;;;10.43;100.00;106329.22;4986940;28;20117;-70
2023/12/14 11:00:08;;;;;;;69.95;50.25;;;;;;;10.55;100.00;106119.56;4962381;28;20121;-73
2023/12/14 11:02:44;;;;;;;63.85;47.70;;;;;;;10.21;100.00;105836.31;4977894;28;20066;-70
2023/12/14 11:05:12;;;;;;;66.57;48.00;;;;;;;10.52;100.00;105625.44;4980138;28;20022;-71
2023/12/14 11:07:48;;;;;;;62.50;48.40;;;;;;;10.52;100.00;105365.78;4965861;28;20449;-71